Página principal
METAR-TAF:

METAR-TAF

Aeroportos :

Aeroporto Internacional de Túnis-Cartago

Tunes, Tunísia

latitude: 36-50N, longitude: 010-14E, altura: 3 m

Observação actual do tempo

O boletim foi feito há 41 minutos, às 01:00 UTC
Vento 3 kt de es-sudeste
Temperatura 13°C
Humidade 94%
Pressão 1022 hPa
Visibilidade 10 km ou mais
Nuvens dispersasa uma altura de 2600 ft

METAR: DTTA 150100Z 12003KT 9999 SCT026 13/12 Q1022

Hora: 02:41 (01:41 UTC)

Previsão

O boletim foi feito há 2 horas e 41 minutos, às 23:00 UTC
Previsão válida de 15 às 00 UTC a 15 às 24 UTC
Vento 4 kt de es-sudeste
Visibilidade 10 km ou mais
Poucas nuvensa uma altura de 2600 ft
Temporariamente
de 15 às 04 UTC a 15 às 07 UTC
Visibilidade: 3000 m
neblina

TAF: DTTA 142300Z 1500/1524 11004KT 9999 FEW026 TEMPO 1504/1507 3000 BR

Observações e previsões do tempo de mais de 4000 aeroportos (mensagens METAR e TAF).

As estações disponíveis são os pontos amarelos e vermelhos sobre o mapa.

Mova o rato sobre o mapa para ver o nome da estação.

Depois clique no ponto para visualizar as observações e previsões meteorológicas.

Para alterar o mapa : clique nos botões verdes com uma cruz preta para aumentar o zoom; no botão verde com uma pitada de zoom; ou nas setas verdes para mapas adjacentes.


METAR-TAF: